Terminal Aerodrome Forecast
Issued by NWS Portland, OR

Current Version | Previous Version | Text Only | Print | Product List | Glossary On
Versions: 1 2 3 4 5 6 7 8 9 10 11 12 13 14 15 16 17 18 19 20 21 22 23 24 25 26 27 28 29 30 31 32 33 34 35 36 37
000
FTUS46 KPQR 271305 AAA
TAFEUG
TAF AMD
KEUG 271305Z 2713/2812 23005KT P6SM -SHRA SCT025 OVC035
     FM271500 18006KT P6SM -SHRA FEW015 BKN025 OVC035
     FM271800 19007KT P6SM -SHRAGS SCT020 OVC030
     FM280400 36006KT P6SM VCSH SCT025 BKN035
     FM280800 09012KT P6SM BKN050
     FM281100 02005KT P6SM BKN100=

USA.gov is the U.S. government's official web portal to all federal, state and local government web resources and services.